Time;durP1;ratioP1;P1;durP2;ratioP2;P2;SDS_P1;SDS_P2;PMS_P1;PMS_P2;Temp;Humidity;BMP_temperature;BMP_pressure;BME280_temperature;BME280_humidity;BME280_pressure;Samples;Min_cycle;Max_cycle;Signal;HPM_P1;HPM_P2
2021/06/09 00:01:47;;;;;;;13.02;11.50;;;;;;;19.21;65.99;97734.03;5061791;28;20037;-77
2021/06/09 00:04:12;;;;;;;12.40;11.20;;;;;;;19.26;66.38;97741.06;5044391;28;20181;-77
2021/06/09 00:06:56;;;;;;;13.02;11.73;;;;;;;19.23;66.40;97741.66;5038813;28;20063;-77
2021/06/09 00:09:24;;;;;;;13.73;12.32;;;;;;;19.21;67.00;97744.59;5038764;28;20476;-77
2021/06/09 00:11:49;;;;;;;13.88;12.45;;;;;;;19.23;66.59;97746.94;5031612;28;20036;-77
2021/06/09 00:14:16;;;;;;;13.05;11.75;;;;;;;19.20;66.73;97745.66;5047388;28;20234;-77
2021/06/09 00:16:44;;;;;;;11.82;10.70;;;;;;;19.20;66.53;97745.66;5025762;28;20078;-77
2021/06/09 00:19:10;;;;;;;12.80;11.57;;;;;;;19.14;66.74;97752.09;5040725;28;20044;-77
2021/06/09 00:21:36;;;;;;;12.55;11.25;;;;;;;19.08;66.86;97743.44;5036685;28;20093;-76
2021/06/09 00:24:02;;;;;;;13.50;12.10;;;;;;;19.01;66.68;97747.53;5016715;28;20582;-77
2021/06/09 00:26:27;;;;;;;12.60;11.40;;;;;;;19.03;66.71;97753.28;5035534;28;20039;-77
2021/06/09 00:28:52;;;;;;;13.23;11.52;;;;;;;18.95;66.96;97754.69;5019541;28;20384;-77
2021/06/09 00:31:18;;;;;;;12.48;11.32;;;;;;;18.95;66.60;97754.69;5015638;28;20073;-77
2021/06/09 00:33:44;;;;;;;12.02;10.90;;;;;;;18.95;66.80;97759.97;5033921;28;20703;-77
2021/06/09 00:36:10;;;;;;;13.88;12.43;;;;;;;18.89;66.97;97753.22;5049341;28;20047;-77
2021/06/09 00:38:35;;;;;;;12.93;11.70;;;;;;;18.86;66.90;97751.91;5030554;28;20031;-77
2021/06/09 00:41:02;;;;;;;12.35;11.15;;;;;;;18.89;66.66;97763.75;5029883;28;20039;-77
2021/06/09 00:43:32;;;;;;;12.75;11.55;;;;;;;18.84;66.90;97756.69;5053605;28;20155;-77
2021/06/09 00:46:00;;;;;;;11.52;10.43;;;;;;;18.77;66.68;97756.22;5021228;28;20025;-77
2021/06/09 00:48:29;;;;;;;12.30;11.10;;;;;;;18.77;66.89;97756.22;5026884;28;20438;-77
2021/06/09 00:50:57;;;;;;;11.90;10.80;;;;;;;18.71;66.93;97752.06;5053491;28;20032;-77
2021/06/09 00:53:28;;;;;;;12.98;11.30;;;;;;;18.74;66.99;97756.78;5046816;28;20395;-77
2021/06/09 00:56:14;;;;;;;11.60;10.40;;;;;;;18.48;67.65;97769.50;5031575;28;20040;-77
2021/06/09 00:58:42;;;;;;;12.88;11.68;;;;;;;18.64;67.17;97767.47;5025696;28;20072;-77
2021/06/09 01:01:09;;;;;;;14.00;11.40;;;;;;;18.73;67.08;97763.16;5050437;28;20107;-77
2021/06/09 01:03:35;;;;;;;12.25;10.95;;;;;;;18.68;67.11;97758.72;5044035;22;20538;-76
2021/06/09 01:06:02;;;;;;;12.98;11.63;;;;;;;18.71;67.19;97767.91;4999416;28;20072;-76
2021/06/09 01:08:29;;;;;;;12.40;11.20;;;;;;;18.68;67.17;97766.63;5017111;28;20416;-76
2021/06/09 01:10:54;;;;;;;14.50;12.40;;;;;;;18.73;67.06;97757.88;5031033;28;20369;-76
2021/06/09 01:13:26;;;;;;;12.75;11.45;;;;;;;18.68;66.99;97755.31;5030695;28;20041;-76
2021/06/09 01:15:51;;;;;;;12.40;11.15;;;;;;;18.74;67.16;97762.06;5032279;28;20037;-76
2021/06/09 01:18:17;;;;;;;13.10;11.80;;;;;;;18.71;67.18;97760.78;5031001;28;20037;-76
2021/06/09 01:20:44;;;;;;;12.63;11.43;;;;;;;18.73;67.34;97757.88;5014582;28;20025;-76
2021/06/09 01:23:09;;;;;;;12.95;11.60;;;;;;;18.75;67.63;97760.22;5030624;28;20033;-76
2021/06/09 01:25:35;;;;;;;13.50;12.20;;;;;;;18.75;67.64;97755.72;5030744;28;20117;-76
2021/06/09 01:28:02;;;;;;;12.73;11.43;;;;;;;18.74;67.70;97756.00;5030658;28;20022;-76
2021/06/09 01:30:27;;;;;;;14.48;13.07;;;;;;;18.76;67.71;97759.94;5014343;28;20502;-76
2021/06/09 01:32:56;;;;;;;13.48;12.07;;;;;;;18.71;67.60;97749.44;5013832;28;20069;-76
2021/06/09 01:35:22;;;;;;;13.13;11.82;;;;;;;18.82;67.51;97758.03;5014404;28;20029;-76
2021/06/09 01:37:49;;;;;;;13.50;12.05;;;;;;;18.85;67.51;97753.00;5013830;28;20037;-76
2021/06/09 01:40:17;;;;;;;13.65;12.25;;;;;;;18.79;67.79;97748.81;4997562;28;20720;-76
2021/06/09 01:42:43;;;;;;;13.57;12.18;;;;;;;18.89;67.63;97748.72;5012931;28;20030;-76
2021/06/09 01:45:13;;;;;;;13.80;12.48;;;;;;;18.85;67.85;97753.00;5028371;28;20047;-76
2021/06/09 01:47:39;;;;;;;13.93;12.52;;;;;;;18.94;67.91;97739.94;5032572;28;20029;-76
2021/06/09 01:50:07;;;;;;;14.40;12.98;;;;;;;18.90;67.87;97747.66;5031538;28;20036;-76
2021/06/09 01:52:32;;;;;;;12.75;11.45;;;;;;;19.02;67.84;97752.50;5033912;28;20026;-76
2021/06/09 01:55:00;;;;;;;13.80;12.50;;;;;;;18.98;67.76;97751.50;4997451;28;20029;-76
2021/06/09 01:57:28;;;;;;;13.82;12.32;;;;;;;19.03;67.58;97753.28;5030088;28;20038;-76
2021/06/09 01:59:58;;;;;;;15.30;13.80;;;;;;;19.03;67.55;97756.72;4998476;28;20032;-76
2021/06/09 02:02:25;;;;;;;12.85;11.57;;;;;;;19.00;67.42;97753.84;5011333;28;20433;-76
2021/06/09 02:04:51;;;;;;;13.32;12.00;;;;;;;18.98;67.86;97748.09;4995098;28;20125;-76
2021/06/09 02:07:16;;;;;;;13.40;12.00;;;;;;;18.98;67.70;97745.44;4984038;28;20112;-76
2021/06/09 02:09:43;;;;;;;14.25;12.80;;;;;;;18.96;67.53;97744.94;5029983;28;20041;-76
2021/06/09 02:12:08;;;;;;;13.77;12.23;;;;;;;18.94;67.98;97745.22;5029500;28;20094;-76
2021/06/09 02:14:35;;;;;;;13.63;12.20;;;;;;;18.89;67.76;97747.94;4993719;28;20476;-76
2021/06/09 02:17:03;;;;;;;14.25;12.75;;;;;;;18.86;67.85;97741.34;5021956;28;20035;-76
2021/06/09 02:19:29;;;;;;;12.88;11.60;;;;;;;18.92;67.75;97741.28;5021556;28;20021;-76
2021/06/09 02:21:54;;;;;;;14.65;12.90;;;;;;;18.90;67.68;97745.00;5027115;28;20094;-76
2021/06/09 02:24:20;;;;;;;14.23;12.82;;;;;;;18.85;67.66;97739.00;4985572;28;20037;-76
2021/06/09 02:26:46;;;;;;;13.77;12.32;;;;;;;18.87;67.79;97742.94;5011460;28;20116;-76
2021/06/09 02:29:14;;;;;;;13.50;12.20;;;;;;;18.79;67.81;97743.53;5011613;28;20112;-76
2021/06/09 02:31:47;;;;;;;15.15;13.52;;;;;;;18.71;67.91;97741.53;5027941;28;20033;-76
2021/06/09 02:34:20;;;;;;;13.25;11.85;;;;;;;18.68;67.96;97729.69;5029000;28;20484;-76
2021/06/09 02:36:51;;;;;;;14.00;12.60;;;;;;;18.76;67.78;97738.03;5027861;28;20029;-76
2021/06/09 02:39:17;;;;;;;14.48;13.07;;;;;;;18.84;67.64;97740.88;5027654;28;20117;-76
2021/06/09 02:41:43;;;;;;;13.73;12.43;;;;;;;18.87;67.74;97744.81;5011023;28;20103;-76
2021/06/09 02:44:08;;;;;;;13.18;11.90;;;;;;;18.86;67.85;97744.00;5028819;28;20026;-76
2021/06/09 02:46:54;;;;;;;14.10;12.68;;;;;;;18.56;68.05;97745.16;5027531;28;20035;-76
2021/06/09 02:49:23;;;;;;;15.25;13.68;;;;;;;18.70;67.93;97740.75;5010835;28;20122;-76
2021/06/09 02:52:11;;;;;;;14.43;13.02;;;;;;;18.68;67.70;97736.84;5027017;28;20036;-76
2021/06/09 02:54:40;;;;;;;14.07;12.63;;;;;;;18.76;67.52;97743.31;5027305;28;20029;-76
2021/06/09 02:57:30;;;;;;;14.68;12.98;;;;;;;18.62;68.13;97744.00;4994406;28;20040;-76
2021/06/09 03:00:14;;;;;;;12.85;11.55;;;;;;;18.62;68.15;97744.00;5004572;28;20121;-76
2021/06/09 03:03:11;;;;;;;14.10;12.60;;;;;;;18.67;68.25;97735.25;5026798;28;20107;-76
2021/06/09 03:05:43;;;;;;;13.20;12.00;;;;;;;18.89;68.26;97747.94;5022501;28;20479;-76
2021/06/09 03:08:11;;;;;;;14.48;13.07;;;;;;;18.90;67.68;97745.00;4994532;28;20061;-76
2021/06/09 03:10:49;;;;;;;13.50;12.20;;;;;;;18.75;67.97;97739.09;5027108;28;20033;-76
2021/06/09 03:13:34;;;;;;;12.85;11.55;;;;;;;18.78;67.80;97738.53;4997565;28;20034;-76
2021/06/09 03:16:05;;;;;;;13.32;12.02;;;;;;;18.74;67.72;97746.25;5027209;28;20032;-76
2021/06/09 03:18:41;;;;;;;13.07;11.77;;;;;;;18.67;68.15;97741.31;5027101;28;20037;-76
2021/06/09 03:21:11;;;;;;;12.55;11.35;;;;;;;18.78;67.57;97735.91;4975233;28;20124;-76
2021/06/09 03:23:58;;;;;;;12.57;11.38;;;;;;;18.74;67.85;97735.69;5004291;28;20034;-76
2021/06/09 03:26:43;;;;;;;14.80;13.00;;;;;;;18.60;68.28;97734.81;5027194;28;20033;-76
2021/06/09 03:29:21;;;;;;;14.80;13.20;;;;;;;18.65;68.13;97737.41;4994892;28;20122;-76
2021/06/09 03:31:54;;;;;;;15.68;14.07;;;;;;;18.59;67.94;97734.00;4997587;28;20034;-76
2021/06/09 03:34:26;;;;;;;14.68;13.07;;;;;;;18.60;67.70;97740.09;5023797;28;20392;-76
2021/06/09 03:36:55;;;;;;;15.18;13.27;;;;;;;18.65;67.71;97738.16;5031152;28;20029;-76
2021/06/09 03:39:22;;;;;;;13.20;11.90;;;;;;;18.65;67.71;97740.81;5031017;28;20559;-76
2021/06/09 03:41:53;;;;;;;13.85;12.45;;;;;;;18.55;67.66;97729.59;5007408;28;20032;-76
2021/06/09 03:44:34;;;;;;;12.73;11.40;;;;;;;18.47;67.94;97736.28;5030811;28;20037;-75
2021/06/09 03:47:00;;;;;;;12.73;11.48;;;;;;;18.63;67.33;97731.63;4998142;28;20036;-76
2021/06/09 03:49:26;;;;;;;12.98;11.75;;;;;;;18.61;67.14;97734.53;5014557;28;20079;-76
2021/06/09 03:51:52;;;;;;;13.02;11.82;;;;;;;18.57;67.44;97735.38;5000810;28;20041;-76
2021/06/09 03:54:21;;;;;;;13.30;12.10;;;;;;;18.44;67.44;97737.63;4997055;28;20026;-76
2021/06/09 03:56:47;;;;;;;14.20;12.70;;;;;;;18.50;67.73;97736.50;4997719;28;20033;-76
2021/06/09 03:59:14;;;;;;;14.45;12.98;;;;;;;18.52;67.69;97742.28;5031039;28;20551;-76
2021/06/09 04:01:40;;;;;;;13.05;11.75;;;;;;;18.58;67.46;97747.50;5011051;28;20330;-76
2021/06/09 04:04:07;;;;;;;13.48;12.18;;;;;;;18.58;67.27;97743.00;5022422;28;20030;-76
2021/06/09 04:06:34;;;;;;;14.18;12.65;;;;;;;18.57;67.63;97738.78;4996894;28;20034;-76
2021/06/09 04:09:01;;;;;;;15.13;11.77;;;;;;;18.56;67.63;97742.50;5030443;28;20536;-76
2021/06/09 04:11:27;;;;;;;13.85;12.45;;;;;;;18.63;67.59;97740.31;5013904;28;20037;-76
2021/06/09 04:13:54;;;;;;;14.40;12.90;;;;;;;18.69;67.44;97741.81;5013488;28;20056;-76
2021/06/09 04:16:22;;;;;;;14.32;12.82;;;;;;;18.67;67.50;97737.88;5013771;28;20104;-76
2021/06/09 04:18:49;;;;;;;14.88;13.35;;;;;;;18.73;67.41;97739.41;5011792;28;20030;-76
2021/06/09 04:21:15;;;;;;;13.07;11.88;;;;;;;18.89;67.20;97745.28;4997746;28;20484;-76
2021/06/09 04:23:41;;;;;;;13.50;12.18;;;;;;;18.89;66.98;97740.78;5002190;28;20473;-76
2021/06/09 04:26:09;;;;;;;13.20;11.85;;;;;;;18.82;66.94;97745.66;4996295;28;20041;-76
2021/06/09 04:28:35;;;;;;;16.05;13.82;;;;;;;18.95;67.28;97746.78;5030020;28;20037;-76
2021/06/09 04:31:00;;;;;;;15.55;13.88;;;;;;;19.01;67.27;97750.16;5030029;28;20045;-76
2021/06/09 04:33:30;;;;;;;15.30;13.80;;;;;;;18.97;67.17;97746.50;5029532;28;20494;-76
2021/06/09 04:35:57;;;;;;;14.35;12.93;;;;;;;19.15;66.91;97744.94;4996849;28;20029;-76
2021/06/09 04:38:22;;;;;;;15.30;13.63;;;;;;;19.18;67.12;97742.53;5010919;28;20025;-76
2021/06/09 04:40:51;;;;;;;15.73;14.13;;;;;;;19.13;67.17;97734.66;5013274;28;20475;-76
2021/06/09 04:43:18;;;;;;;16.33;14.63;;;;;;;19.30;67.13;97741.31;5013030;28;20033;-76
2021/06/09 04:45:44;;;;;;;15.13;13.63;;;;;;;19.36;66.80;97745.44;5028890;28;20045;-75
2021/06/09 04:48:11;;;;;;;15.52;13.93;;;;;;;19.37;66.93;97747.78;5006879;28;20408;-76
2021/06/09 04:50:36;;;;;;;15.30;13.80;;;;;;;19.45;66.72;97744.50;4996981;28;20030;-76
2021/06/09 04:53:11;;;;;;;16.67;14.98;;;;;;;19.54;66.58;97741.97;5018762;28;20044;-76
2021/06/09 04:55:40;;;;;;;17.02;15.27;;;;;;;19.45;65.93;97746.38;5024064;28;20037;-76
2021/06/09 04:58:06;;;;;;;15.57;13.98;;;;;;;19.61;65.92;97750.31;5029169;28;20060;-76
2021/06/09 05:00:32;;;;;;;16.27;14.25;;;;;;;19.65;65.45;97748.69;5028382;28;20130;-76
2021/06/09 05:02:57;;;;;;;16.35;14.65;;;;;;;19.67;65.61;97745.72;5029293;28;20414;-76
2021/06/09 05:05:23;;;;;;;14.77;13.27;;;;;;;19.72;65.45;97750.16;5029595;28;20037;-76
2021/06/09 05:07:48;;;;;;;14.95;13.45;;;;;;;19.77;65.00;97752.72;5022218;28;20056;-76
2021/06/09 05:10:14;;;;;;;14.82;13.30;;;;;;;19.73;65.20;97749.84;5011178;28;20033;-75
2021/06/09 05:12:42;;;;;;;15.80;13.93;;;;;;;19.73;65.42;97749.84;5011296;28;20033;-76
2021/06/09 05:15:12;;;;;;;14.73;13.25;;;;;;;19.77;65.08;97745.59;4992277;28;20477;-76
2021/06/09 05:17:44;;;;;;;15.45;13.85;;;;;;;19.87;64.50;97749.91;5027655;28;20501;-76
2021/06/09 05:20:15;;;;;;;17.42;15.63;;;;;;;19.87;63.68;97744.63;5029513;28;20033;-76
2021/06/09 05:22:43;;;;;;;16.42;14.73;;;;;;;19.99;63.58;97760.03;5008226;28;20030;-76
2021/06/09 05:25:09;;;;;;;15.73;14.13;;;;;;;20.07;63.18;97750.66;5022364;28;20481;-76
2021/06/09 05:27:37;;;;;;;15.32;13.73;;;;;;;20.07;62.90;97753.31;5022517;28;20037;-76
2021/06/09 05:30:05;;;;;;;15.95;14.27;;;;;;;20.18;62.76;97759.97;5022605;28;20033;-76
2021/06/09 05:32:31;;;;;;;15.38;13.82;;;;;;;20.32;62.37;97762.59;5028350;28;20108;-76
2021/06/09 05:34:58;;;;;;;16.60;14.90;;;;;;;20.34;62.00;97755.97;5028771;28;20442;-76
2021/06/09 05:37:24;;;;;;;15.52;13.60;;;;;;;20.30;61.51;97754.97;5028857;28;20037;-76
2021/06/09 05:39:49;;;;;;;16.27;14.63;;;;;;;20.32;61.63;97763.41;5028886;28;20107;-76
2021/06/09 05:42:15;;;;;;;14.77;13.25;;;;;;;20.42;61.83;97762.41;5028351;28;20036;-76
2021/06/09 05:44:48;;;;;;;15.35;13.85;;;;;;;20.27;61.83;97760.88;5012280;28;20480;-76
2021/06/09 05:47:14;;;;;;;15.38;13.77;;;;;;;20.55;61.33;97752.94;5028664;28;20047;-76
2021/06/09 05:49:40;;;;;;;14.63;13.13;;;;;;;20.67;61.62;97752.47;5029801;28;20030;-76
2021/06/09 05:52:06;;;;;;;16.17;14.50;;;;;;;20.62;60.83;97753.34;5004686;28;20365;-76
2021/06/09 05:54:37;;;;;;;14.90;13.40;;;;;;;20.63;60.50;97754.91;5028405;28;20369;-76
2021/06/09 05:57:08;;;;;;;16.80;15.07;;;;;;;20.78;59.96;97756.44;4991705;28;20030;-76
2021/06/09 05:59:33;;;;;;;14.75;13.32;;;;;;;21.02;59.79;97750.91;5027888;28;20037;-76
2021/06/09 06:02:03;;;;;;;14.35;12.95;;;;;;;21.09;58.99;97747.84;5027791;28;20480;-76
2021/06/09 06:04:28;;;;;;;14.13;12.82;;;;;;;21.30;58.74;97745.53;4998198;28;20064;-76
2021/06/09 06:06:54;;;;;;;13.75;12.27;;;;;;;21.40;59.01;97749.81;5027447;28;20061;-76
2021/06/09 06:09:22;;;;;;;12.98;11.77;;;;;;;21.60;58.82;97743.28;5028262;28;20033;-76
2021/06/09 06:11:49;;;;;;;12.52;11.43;;;;;;;21.70;58.25;97737.72;5027753;28;20546;-76
2021/06/09 06:14:14;;;;;;;13.73;12.38;;;;;;;21.92;57.70;97741.41;5028094;28;20083;-76
2021/06/09 06:16:54;;;;;;;12.65;11.45;;;;;;;21.89;58.02;97750.78;4995252;28;20029;-76
2021/06/09 06:19:20;;;;;;;11.48;10.38;;;;;;;22.49;56.35;97746.84;5002240;28;20038;-76
2021/06/09 06:21:47;;;;;;;11.18;10.07;;;;;;;22.70;55.71;97743.59;4992322;28;20026;-76
2021/06/09 06:24:16;;;;;;;11.27;10.18;;;;;;;22.89;55.46;97746.75;5009546;28;20025;-76
2021/06/09 06:26:44;;;;;;;11.57;10.57;;;;;;;23.10;55.75;97751.47;5026439;28;20029;-76
2021/06/09 06:29:11;;;;;;;11.85;10.70;;;;;;;23.07;54.84;97744.94;5027775;28;20396;-76
2021/06/09 06:31:37;;;;;;;11.27;10.20;;;;;;;23.34;53.69;97748.38;5010125;28;20131;-76
2021/06/09 06:34:03;;;;;;;11.75;10.63;;;;;;;23.56;53.85;97744.72;5010391;28;20033;-76
2021/06/09 06:36:29;;;;;;;10.68;9.77;;;;;;;23.57;53.82;97751.63;5010732;28;20029;-76
2021/06/09 06:38:55;;;;;;;11.55;10.00;;;;;;;23.67;53.49;97745.97;5027447;28;20083;-76
2021/06/09 06:41:21;;;;;;;10.02;9.13;;;;;;;23.97;53.72;97746.06;5027088;28;20033;-76
2021/06/09 06:43:47;;;;;;;11.25;10.20;;;;;;;24.04;53.21;97741.06;5011145;28;20112;-76
2021/06/09 06:46:15;;;;;;;10.48;9.57;;;;;;;24.36;52.78;97746.88;5010567;28;20449;-76
2021/06/09 06:48:41;;;;;;;9.40;8.60;;;;;;;24.52;52.49;97752.41;5026260;28;20030;-76
2021/06/09 06:51:09;;;;;;;10.02;9.13;;;;;;;24.75;52.30;97750.28;5010880;28;20041;-76
2021/06/09 06:53:34;;;;;;;10.00;9.20;;;;;;;25.04;51.54;97749.44;5010707;28;20480;-76
2021/06/09 06:56:01;;;;;;;11.07;8.65;;;;;;;25.16;51.31;97751.41;5027568;28;20040;-76
2021/06/09 06:58:30;;;;;;;10.35;9.35;;;;;;;25.22;50.76;97747.44;5000551;28;20038;-76
2021/06/09 07:00:58;;;;;;;8.73;8.02;;;;;;;25.33;50.23;97744.41;4977136;28;20508;-76
2021/06/09 07:03:25;;;;;;;8.63;7.93;;;;;;;25.71;50.73;97743.41;5005413;28;20586;-76
2021/06/09 07:05:51;;;;;;;9.30;8.60;;;;;;;25.69;49.59;97751.75;4994503;28;20025;-75
2021/06/09 07:08:16;;;;;;;8.90;8.07;;;;;;;25.61;50.00;97758.72;5009012;28;20037;-76
2021/06/09 07:10:43;;;;;;;9.43;8.60;;;;;;;25.29;49.79;97751.47;5007906;28;20487;-76
2021/06/09 07:13:09;;;;;;;10.38;7.95;;;;;;;25.20;49.79;97752.31;5026741;28;20036;-75
2021/06/09 07:15:36;;;;;;;8.35;7.65;;;;;;;25.45;49.76;97760.44;5010442;28;20112;-76
2021/06/09 07:18:02;;;;;;;8.82;8.02;;;;;;;25.63;50.37;97757.63;5010621;28;20254;-76
2021/06/09 07:20:29;;;;;;;9.10;8.30;;;;;;;26.01;49.25;97757.38;4994086;28;20079;-76
2021/06/09 07:22:56;;;;;;;8.43;7.63;;;;;;;25.73;48.25;97757.19;5009577;28;20036;-76
2021/06/09 07:25:22;;;;;;;8.60;7.80;;;;;;;25.93;47.95;97753.69;5010871;28;20439;-76
2021/06/09 07:27:51;;;;;;;8.48;7.78;;;;;;;26.10;48.57;97762.66;5008603;28;20514;-76
2021/06/09 07:30:19;;;;;;;9.07;8.38;;;;;;;26.44;47.11;97760.63;5026537;28;20042;-76
2021/06/09 07:32:46;;;;;;;9.38;8.57;;;;;;;26.41;46.65;97766.63;4993587;28;20037;-75
2021/06/09 07:35:14;;;;;;;9.55;8.75;;;;;;;26.50;46.64;97767.31;5026934;28;20053;-76
2021/06/09 07:37:51;;;;;;;9.30;8.50;;;;;;;26.74;46.04;97765.78;5010467;28;20052;-75
2021/06/09 07:40:22;;;;;;;10.00;8.55;;;;;;;26.63;46.78;97758.22;5010339;28;20033;-76
2021/06/09 07:42:57;;;;;;;8.88;8.13;;;;;;;27.00;46.14;97765.38;5026713;28;20395;-76
2021/06/09 07:45:23;;;;;;;9.00;8.13;;;;;;;26.94;45.03;97767.53;5025472;28;20502;-76
2021/06/09 07:47:50;;;;;;;9.20;8.30;;;;;;;27.01;45.19;97762.38;5026782;28;20061;-75
2021/06/09 07:50:25;;;;;;;8.55;7.80;;;;;;;27.56;46.00;97775.38;5026351;28;20033;-75
2021/06/09 07:52:51;;;;;;;9.00;8.20;;;;;;;27.59;45.36;97770.13;4986570;28;20056;-75
2021/06/09 07:55:17;;;;;;;8.93;8.15;;;;;;;28.11;44.35;97763.03;5015179;28;20022;-75
2021/06/09 07:57:43;;;;;;;8.35;7.55;;;;;;;28.45;44.35;97771.47;4982814;28;20396;-76
2021/06/09 08:00:12;;;;;;;8.25;7.55;;;;;;;28.16;43.13;97770.03;5024567;28;20033;-76
2021/06/09 08:02:40;;;;;;;8.55;7.78;;;;;;;28.43;41.55;97773.72;5025548;28;20041;-76
2021/06/09 08:05:07;;;;;;;7.82;7.13;;;;;;;28.46;40.96;97770.34;5002760;28;20083;-76
2021/06/09 08:07:35;;;;;;;9.05;8.18;;;;;;;28.12;42.29;97777.97;5025466;28;20041;-76
2021/06/09 08:10:00;;;;;;;9.57;8.68;;;;;;;27.82;44.36;97772.22;5008848;28;20033;-75
2021/06/09 08:12:26;;;;;;;8.77;8.02;;;;;;;28.04;43.62;97773.56;5008979;28;20582;-76
2021/06/09 08:14:51;;;;;;;8.43;7.72;;;;;;;28.41;42.14;97773.28;4998598;28;20033;-76
2021/06/09 08:17:21;;;;;;;8.35;7.70;;;;;;;28.41;42.90;97781.31;4992904;28;20041;-75
2021/06/09 08:19:46;;;;;;;8.48;7.70;;;;;;;28.57;42.36;97779.44;5024251;28;20397;-75
2021/06/09 08:22:12;;;;;;;8.45;7.72;;;;;;;28.12;42.68;97774.50;5009633;28;20109;-76
2021/06/09 08:24:37;;;;;;;7.85;7.15;;;;;;;28.72;40.79;97769.81;5026264;28;20472;-76
2021/06/09 08:27:03;;;;;;;8.63;7.93;;;;;;;28.67;41.35;97769.28;5023072;28;20613;-76
2021/06/09 08:29:36;;;;;;;8.48;7.78;;;;;;;28.42;41.20;97766.03;5029741;28;20392;-75
2021/06/09 08:32:03;;;;;;;8.35;7.65;;;;;;;28.97;40.75;97760.75;5009393;28;20025;-75
2021/06/09 08:34:28;;;;;;;7.60;6.80;;;;;;;29.49;39.29;97751.44;5027416;28;20041;-76
2021/06/09 08:36:55;;;;;;;8.25;7.45;;;;;;;29.83;38.11;97765.13;4992784;28;20033;-76
2021/06/09 08:39:22;;;;;;;7.43;6.70;;;;;;;30.02;36.15;97765.06;5028550;28;20033;-76
2021/06/09 08:41:47;;;;;;;8.15;7.45;;;;;;;29.45;38.86;97766.72;5029983;28;20037;-76
2021/06/09 08:44:14;;;;;;;7.63;7.05;;;;;;;29.22;39.37;97767.44;5028050;28;20029;-76
2021/06/09 08:46:39;;;;;;;6.88;6.38;;;;;;;29.88;36.48;97762.13;5010014;28;20536;-76
2021/06/09 08:49:05;;;;;;;7.22;6.72;;;;;;;29.89;38.71;97769.06;5028269;28;20121;-76
2021/06/09 08:51:32;;;;;;;7.65;7.15;;;;;;;30.21;36.65;97763.44;5027275;28;20250;-76
2021/06/09 08:53:58;;;;;;;8.00;7.38;;;;;;;30.44;36.62;97766.88;5026717;28;20395;-76
2021/06/09 08:56:24;;;;;;;7.57;6.97;;;;;;;29.91;38.38;97766.03;5005650;28;20108;-76
2021/06/09 08:58:50;;;;;;;7.68;7.13;;;;;;;29.65;37.85;97760.19;5027817;28;20029;-75
2021/06/09 09:01:19;;;;;;;7.93;7.30;;;;;;;30.09;37.00;97759.00;5026871;28;20072;-75
2021/06/09 09:03:46;;;;;;;8.00;7.35;;;;;;;29.98;38.68;97761.53;4989412;28;20030;-75
2021/06/09 09:06:13;;;;;;;7.65;7.05;;;;;;;30.45;35.50;97751.53;5020341;28;20472;-76
2021/06/09 09:08:38;;;;;;;7.63;7.03;;;;;;;30.19;37.15;97763.00;5026022;28;20033;-76
2021/06/09 09:11:04;;;;;;;7.72;7.07;;;;;;;30.33;36.22;97755.19;5008924;28;20037;-76
2021/06/09 09:13:31;;;;;;;7.95;7.32;;;;;;;30.76;33.88;97763.09;5003547;28;20578;-76
2021/06/09 09:15:57;;;;;;;7.32;6.63;;;;;;;30.80;35.49;97761.25;5028403;28;20087;-76
2021/06/09 09:18:41;;;;;;;6.80;6.30;;;;;;;30.84;35.25;97766.66;5011278;28;20025;-76
2021/06/09 09:21:09;;;;;;;7.00;6.47;;;;;;;31.20;33.20;97764.47;5005187;28;20028;-76
2021/06/09 09:23:35;;;;;;;7.30;6.70;;;;;;;31.03;34.61;97763.88;5027315;28;20484;-76
2021/06/09 09:26:20;;;;;;;8.02;6.97;;;;;;;30.22;37.57;97760.38;5027919;28;20112;-75
2021/06/09 09:28:46;;;;;;;7.57;6.97;;;;;;;30.46;36.27;97763.06;5027277;28;20025;-75
2021/06/09 09:31:13;;;;;;;6.50;6.00;;;;;;;31.13;34.19;97757.84;5020247;28;20039;-76
2021/06/09 09:33:39;;;;;;;7.72;7.03;;;;;;;31.54;34.25;97759.84;5010755;28;20507;-76
2021/06/09 09:36:30;;;;;;;7.40;6.80;;;;;;;31.04;34.67;97760.03;5020588;28;20025;-75
2021/06/09 09:38:59;;;;;;;7.03;6.43;;;;;;;31.13;34.67;97754.38;5027335;28;20172;-76
2021/06/09 09:41:32;;;;;;;6.43;5.93;;;;;;;31.30;32.93;97751.13;5021908;28;20045;-76
2021/06/09 09:43:58;;;;;;;7.05;6.47;;;;;;;30.50;34.58;97761.22;5007641;28;20029;-76
2021/06/09 09:46:34;;;;;;;6.88;6.38;;;;;;;30.14;34.18;97763.31;5027796;28;20403;-76
2021/06/09 09:49:06;;;;;;;6.70;6.20;;;;;;;29.57;35.37;97758.50;5026683;28;20025;-76
2021/06/09 09:51:55;;;;;;;6.88;6.38;;;;;;;28.72;38.83;97763.66;5008188;28;20088;-75
2021/06/09 09:54:31;;;;;;;6.78;6.28;;;;;;;28.69;37.77;97767.06;5025945;28;20382;-75
2021/06/09 09:56:58;;;;;;;6.05;5.60;;;;;;;29.54;36.08;97759.19;5008428;28;20574;-75
2021/06/09 09:59:28;;;;;;;5.95;5.45;;;;;;;30.20;33.03;97761.91;5021234;28;20389;-75
2021/06/09 10:01:55;;;;;;;5.85;5.40;;;;;;;30.54;32.35;97757.44;5027290;28;20065;-75
2021/06/09 10:04:41;;;;;;;5.78;5.38;;;;;;;30.78;32.82;97758.16;5006316;28;20602;-75
2021/06/09 10:07:09;;;;;;;6.32;5.80;;;;;;;31.32;31.33;97761.50;5020041;28;20440;-75
2021/06/09 10:09:35;;;;;;;5.18;4.88;;;;;;;31.31;32.22;97762.66;5026645;28;20463;-75
2021/06/09 10:12:06;;;;;;;5.95;5.43;;;;;;;30.97;33.69;97757.28;5026817;28;20034;-75
2021/06/09 10:14:38;;;;;;;5.63;5.22;;;;;;;31.10;33.06;97760.50;5009710;28;20029;-75
2021/06/09 10:17:08;;;;;;;5.55;5.22;;;;;;;31.54;30.72;97757.94;5010873;28;20388;-75
2021/06/09 10:19:38;;;;;;;6.18;5.78;;;;;;;31.67;31.26;97763.84;5009829;28;20025;-75
2021/06/09 10:22:06;;;;;;;6.32;5.82;;;;;;;31.20;32.75;97761.75;5026259;28;20053;-75
2021/06/09 10:24:52;;;;;;;5.15;4.80;;;;;;;31.89;29.53;97759.44;5022916;28;20095;-75
2021/06/09 10:27:21;;;;;;;5.97;5.47;;;;;;;31.53;32.56;97766.38;5020660;28;20052;-75
2021/06/09 10:29:46;;;;;;;6.35;5.95;;;;;;;31.87;30.76;97771.69;4989785;28;20038;-75
2021/06/09 10:32:18;;;;;;;6.40;5.80;;;;;;;31.55;30.96;97762.19;5026385;28;20550;-75
2021/06/09 10:34:46;;;;;;;5.57;5.10;;;;;;;31.68;32.21;97759.22;5025650;28;20033;-75
2021/06/09 10:37:12;;;;;;;5.22;4.82;;;;;;;32.10;30.12;97758.09;5006993;28;20029;-75
2021/06/09 10:39:40;;;;;;;5.40;5.00;;;;;;;32.59;29.74;97762.25;5008811;28;20377;-75
2021/06/09 10:42:12;;;;;;;5.45;5.05;;;;;;;32.80;26.46;97758.94;5010073;28;20587;-75
2021/06/09 10:44:41;;;;;;;5.55;5.15;;;;;;;32.73;30.19;97744.66;5010062;28;20048;-75
2021/06/09 10:47:13;;;;;;;5.57;5.18;;;;;;;32.21;30.22;97753.53;4993244;28;20048;-75
2021/06/09 10:49:41;;;;;;;6.15;5.68;;;;;;;32.39;29.87;97750.19;5025944;28;20519;-75
2021/06/09 10:52:07;;;;;;;5.75;5.35;;;;;;;31.53;31.62;97745.63;5009414;28;20511;-75
2021/06/09 10:54:33;;;;;;;5.25;4.85;;;;;;;31.11;31.15;97743.22;5022606;28;20555;-75
2021/06/09 10:56:58;;;;;;;5.15;4.75;;;;;;;29.86;32.36;97748.28;5027243;28;20021;-75
2021/06/09 10:59:30;;;;;;;5.18;4.78;;;;;;;29.95;33.79;97742.69;4979212;28;20022;-75
2021/06/09 11:01:59;;;;;;;6.10;5.53;;;;;;;29.74;33.76;97746.53;5003837;28;20041;-74
2021/06/09 11:04:25;;;;;;;5.47;5.07;;;;;;;29.27;33.25;97747.56;4982611;28;20462;-75
2021/06/09 11:06:52;;;;;;;5.95;5.55;;;;;;;29.14;34.61;97741.56;4997542;28;20457;-75
2021/06/09 11:09:26;;;;;;;5.68;5.28;;;;;;;29.43;36.28;97742.91;5009027;28;20037;-75
2021/06/09 11:12:14;;;;;;;5.50;5.10;;;;;;;29.89;32.76;97747.59;5023181;28;20045;-75
2021/06/09 11:15:07;;;;;;;5.30;5.00;;;;;;;30.19;32.95;97741.53;5024967;28;20044;-74
2021/06/09 11:17:52;;;;;;;6.00;5.45;;;;;;;30.18;34.29;97734.63;5027727;28;20459;-75
2021/06/09 11:20:21;;;;;;;5.38;4.97;;;;;;;30.31;35.20;97744.00;5025179;28;20120;-74
2021/06/09 11:22:52;;;;;;;5.70;5.15;;;;;;;30.45;32.39;97740.78;5008505;28;20093;-74
2021/06/09 11:25:29;;;;;;;5.47;5.07;;;;;;;29.84;34.90;97745.19;5025296;28;20037;-74
2021/06/09 11:27:56;;;;;;;5.32;4.93;;;;;;;29.98;34.51;97744.66;5025714;28;20399;-75
2021/06/09 11:30:24;;;;;;;5.03;4.63;;;;;;;30.39;32.05;97739.56;5026775;28;20365;-75
2021/06/09 11:32:54;;;;;;;5.15;4.85;;;;;;;30.05;34.01;97750.91;5006251;28;20030;-75